sensor_id;sensor_type;location;lat;lon;timestamp;P1;durP1;ratioP1;P2;durP2;ratioP2
4305;SDS011;2166;49.926;8.608;2023-09-18T00:02:17;9.73;;;7.05;;
4305;SDS011;2166;49.926;8.608;2023-09-18T00:04:45;18.98;;;9.80;;
4305;SDS011;2166;49.926;8.608;2023-09-18T00:07:14;6.82;;;5.10;;
4305;SDS011;2166;49.926;8.608;2023-09-18T00:09:42;10.98;;;6.80;;
4305;SDS011;2166;49.926;8.608;2023-09-18T00:12:10;15.07;;;8.20;;
4305;SDS011;2166;49.926;8.608;2023-09-18T00:14:39;11.38;;;7.00;;
4305;SDS011;2166;49.926;8.608;2023-09-18T00:17:09;13.30;;;8.73;;
4305;SDS011;2166;49.926;8.608;2023-09-18T00:19:37;8.73;;;6.15;;
4305;SDS011;2166;49.926;8.608;2023-09-18T00:22:06;14.15;;;9.05;;
4305;SDS011;2166;49.926;8.608;2023-09-18T00:24:34;9.70;;;6.78;;
4305;SDS011;2166;49.926;8.608;2023-09-18T00:27:04;9.88;;;4.53;;
4305;SDS011;2166;49.926;8.608;2023-09-18T00:29:32;10.68;;;7.00;;
4305;SDS011;2166;49.926;8.608;2023-09-18T00:32:00;9.50;;;5.53;;
4305;SDS011;2166;49.926;8.608;2023-09-18T00:34:30;9.13;;;4.75;;
4305;SDS011;2166;49.926;8.608;2023-09-18T00:36:58;10.02;;;6.07;;
4305;SDS011;2166;49.926;8.608;2023-09-18T00:39:27;8.88;;;6.13;;
4305;SDS011;2166;49.926;8.608;2023-09-18T00:41:55;8.77;;;4.82;;
4305;SDS011;2166;49.926;8.608;2023-09-18T00:44:24;7.63;;;5.85;;
4305;SDS011;2166;49.926;8.608;2023-09-18T00:46:53;13.45;;;5.65;;
4305;SDS011;2166;49.926;8.608;2023-09-18T00:49:22;10.45;;;5.47;;
4305;SDS011;2166;49.926;8.608;2023-09-18T00:51:53;8.60;;;5.70;;
4305;SDS011;2166;49.926;8.608;2023-09-18T00:54:21;11.00;;;6.10;;
4305;SDS011;2166;49.926;8.608;2023-09-18T00:56:51;6.57;;;4.55;;
4305;SDS011;2166;49.926;8.608;2023-09-18T00:59:21;6.90;;;5.47;;
4305;SDS011;2166;49.926;8.608;2023-09-18T01:01:50;8.27;;;4.28;;
4305;SDS011;2166;49.926;8.608;2023-09-18T01:04:18;7.03;;;5.05;;
4305;SDS011;2166;49.926;8.608;2023-09-18T01:06:47;12.30;;;4.25;;
4305;SDS011;2166;49.926;8.608;2023-09-18T01:09:17;7.00;;;4.40;;
4305;SDS011;2166;49.926;8.608;2023-09-18T01:11:49;11.10;;;5.10;;
4305;SDS011;2166;49.926;8.608;2023-09-18T01:14:25;8.00;;;5.13;;
4305;SDS011;2166;49.926;8.608;2023-09-18T01:17:00;6.97;;;4.32;;
4305;SDS011;2166;49.926;8.608;2023-09-18T01:19:35;8.60;;;4.00;;
4305;SDS011;2166;49.926;8.608;2023-09-18T01:22:07;6.25;;;4.18;;
4305;SDS011;2166;49.926;8.608;2023-09-18T01:24:39;6.50;;;3.92;;
4305;SDS011;2166;49.926;8.608;2023-09-18T01:27:08;6.28;;;4.75;;
4305;SDS011;2166;49.926;8.608;2023-09-18T01:29:39;7.40;;;4.07;;
4305;SDS011;2166;49.926;8.608;2023-09-18T01:32:08;5.93;;;4.40;;
4305;SDS011;2166;49.926;8.608;2023-09-18T01:34:37;7.13;;;4.68;;
4305;SDS011;2166;49.926;8.608;2023-09-18T01:37:09;10.45;;;5.13;;
4305;SDS011;2166;49.926;8.608;2023-09-18T01:39:41;7.68;;;4.80;;
4305;SDS011;2166;49.926;8.608;2023-09-18T01:42:10;5.72;;;3.28;;
4305;SDS011;2166;49.926;8.608;2023-09-18T01:44:38;8.70;;;4.50;;
4305;SDS011;2166;49.926;8.608;2023-09-18T01:47:07;6.45;;;3.97;;
4305;SDS011;2166;49.926;8.608;2023-09-18T01:49:39;10.18;;;6.00;;
4305;SDS011;2166;49.926;8.608;2023-09-18T01:52:09;4.65;;;3.30;;
4305;SDS011;2166;49.926;8.608;2023-09-18T01:54:37;4.63;;;4.22;;
4305;SDS011;2166;49.926;8.608;2023-09-18T01:57:07;8.43;;;3.40;;
4305;SDS011;2166;49.926;8.608;2023-09-18T01:59:36;6.25;;;3.42;;
4305;SDS011;2166;49.926;8.608;2023-09-18T02:02:04;9.75;;;3.53;;
4305;SDS011;2166;49.926;8.608;2023-09-18T02:07:27;0.20;;;0.20;;
4305;SDS011;2166;49.926;8.608;2023-09-18T02:09:56;0.30;;;0.30;;
4305;SDS011;2166;49.926;8.608;2023-09-18T02:12:26;0.65;;;0.65;;
4305;SDS011;2166;49.926;8.608;2023-09-18T02:14:54;0.20;;;0.20;;
4305;SDS011;2166;49.926;8.608;2023-09-18T02:17:23;7.78;;;2.45;;
4305;SDS011;2166;49.926;8.608;2023-09-18T02:19:52;0.15;;;0.15;;
4305;SDS011;2166;49.926;8.608;2023-09-18T02:22:20;0.10;;;0.10;;
4305;SDS011;2166;49.926;8.608;2023-09-18T02:24:49;0.52;;;0.52;;
4305;SDS011;2166;49.926;8.608;2023-09-18T02:27:18;0.20;;;0.20;;
4305;SDS011;2166;49.926;8.608;2023-09-18T02:29:47;0.10;;;0.10;;
4305;SDS011;2166;49.926;8.608;2023-09-18T02:32:16;0.35;;;0.35;;
4305;SDS011;2166;49.926;8.608;2023-09-18T02:34:46;0.28;;;0.28;;
4305;SDS011;2166;49.926;8.608;2023-09-18T02:37:14;0.10;;;0.10;;
4305;SDS011;2166;49.926;8.608;2023-09-18T02:39:42;0.30;;;0.30;;
4305;SDS011;2166;49.926;8.608;2023-09-18T02:42:10;2.10;;;1.10;;
4305;SDS011;2166;49.926;8.608;2023-09-18T02:44:38;0.82;;;0.43;;
4305;SDS011;2166;49.926;8.608;2023-09-18T02:47:08;3.60;;;0.65;;
4305;SDS011;2166;49.926;8.608;2023-09-18T02:49:36;0.98;;;0.75;;
4305;SDS011;2166;49.926;8.608;2023-09-18T02:52:05;0.55;;;0.50;;
4305;SDS011;2166;49.926;8.608;2023-09-18T02:54:33;0.00;;;0.00;;
4305;SDS011;2166;49.926;8.608;2023-09-18T02:57:02;0.10;;;0.10;;
4305;SDS011;2166;49.926;8.608;2023-09-18T02:59:30;1.20;;;0.82;;
4305;SDS011;2166;49.926;8.608;2023-09-18T03:01:58;0.43;;;0.43;;
4305;SDS011;2166;49.926;8.608;2023-09-18T03:04:28;0.10;;;0.10;;
4305;SDS011;2166;49.926;8.608;2023-09-18T03:06:58;0.05;;;0.05;;
4305;SDS011;2166;49.926;8.608;2023-09-18T03:09:26;0.17;;;0.17;;
4305;SDS011;2166;49.926;8.608;2023-09-18T03:11:55;0.20;;;0.20;;
4305;SDS011;2166;49.926;8.608;2023-09-18T03:14:24;0.30;;;0.30;;
4305;SDS011;2166;49.926;8.608;2023-09-18T03:16:53;0.63;;;0.57;;
4305;SDS011;2166;49.926;8.608;2023-09-18T03:19:21;0.10;;;0.10;;
4305;SDS011;2166;49.926;8.608;2023-09-18T03:21:52;0.20;;;0.20;;
4305;SDS011;2166;49.926;8.608;2023-09-18T03:24:21;1.10;;;1.00;;
4305;SDS011;2166;49.926;8.608;2023-09-18T03:26:49;0.10;;;0.10;;
4305;SDS011;2166;49.926;8.608;2023-09-18T03:29:18;0.90;;;0.70;;
4305;SDS011;2166;49.926;8.608;2023-09-18T03:31:46;0.88;;;0.45;;
4305;SDS011;2166;49.926;8.608;2023-09-18T03:34:16;0.40;;;0.40;;
4305;SDS011;2166;49.926;8.608;2023-09-18T03:36:44;0.00;;;0.00;;
4305;SDS011;2166;49.926;8.608;2023-09-18T03:39:14;0.55;;;0.55;;
4305;SDS011;2166;49.926;8.608;2023-09-18T03:41:48;0.20;;;0.20;;
4305;SDS011;2166;49.926;8.608;2023-09-18T03:44:16;0.25;;;0.25;;
4305;SDS011;2166;49.926;8.608;2023-09-18T03:46:46;0.20;;;0.20;;
4305;SDS011;2166;49.926;8.608;2023-09-18T03:49:14;0.10;;;0.10;;
4305;SDS011;2166;49.926;8.608;2023-09-18T03:51:43;0.40;;;0.40;;
4305;SDS011;2166;49.926;8.608;2023-09-18T03:54:12;0.10;;;0.10;;
4305;SDS011;2166;49.926;8.608;2023-09-18T03:56:42;2.35;;;0.85;;
4305;SDS011;2166;49.926;8.608;2023-09-18T03:59:12;0.35;;;0.35;;
4305;SDS011;2166;49.926;8.608;2023-09-18T04:01:41;0.30;;;0.30;;
4305;SDS011;2166;49.926;8.608;2023-09-18T04:04:09;0.10;;;0.10;;
4305;SDS011;2166;49.926;8.608;2023-09-18T04:06:40;3.97;;;1.00;;
4305;SDS011;2166;49.926;8.608;2023-09-18T04:09:09;0.17;;;0.17;;
4305;SDS011;2166;49.926;8.608;2023-09-18T04:11:38;0.40;;;0.40;;
4305;SDS011;2166;49.926;8.608;2023-09-18T04:14:07;0.40;;;0.40;;
4305;SDS011;2166;49.926;8.608;2023-09-18T04:16:36;0.25;;;0.25;;
4305;SDS011;2166;49.926;8.608;2023-09-18T04:19:06;0.28;;;0.28;;
4305;SDS011;2166;49.926;8.608;2023-09-18T04:21:38;0.10;;;0.10;;
4305;SDS011;2166;49.926;8.608;2023-09-18T04:24:07;0.20;;;0.20;;
4305;SDS011;2166;49.926;8.608;2023-09-18T04:26:37;9.20;;;2.10;;
4305;SDS011;2166;49.926;8.608;2023-09-18T04:29:08;0.20;;;0.20;;
4305;SDS011;2166;49.926;8.608;2023-09-18T04:31:36;0.00;;;0.00;;
4305;SDS011;2166;49.926;8.608;2023-09-18T04:34:05;0.05;;;0.05;;
4305;SDS011;2166;49.926;8.608;2023-09-18T04:36:33;0.73;;;0.73;;
4305;SDS011;2166;49.926;8.608;2023-09-18T04:39:04;0.20;;;0.20;;
4305;SDS011;2166;49.926;8.608;2023-09-18T04:41:33;0.00;;;0.00;;
4305;SDS011;2166;49.926;8.608;2023-09-18T04:44:04;4.03;;;2.05;;
4305;SDS011;2166;49.926;8.608;2023-09-18T04:46:35;0.10;;;0.10;;
4305;SDS011;2166;49.926;8.608;2023-09-18T04:49:03;0.25;;;0.25;;
4305;SDS011;2166;49.926;8.608;2023-09-18T04:51:31;0.17;;;0.17;;
4305;SDS011;2166;49.926;8.608;2023-09-18T04:54:00;1.35;;;0.95;;
4305;SDS011;2166;49.926;8.608;2023-09-18T04:56:29;1.67;;;1.55;;
4305;SDS011;2166;49.926;8.608;2023-09-18T04:58:58;2.75;;;1.50;;
4305;SDS011;2166;49.926;8.608;2023-09-18T05:01:27;0.30;;;0.30;;
4305;SDS011;2166;49.926;8.608;2023-09-18T05:03:58;0.98;;;0.88;;
4305;SDS011;2166;49.926;8.608;2023-09-18T05:06:26;0.00;;;0.00;;
4305;SDS011;2166;49.926;8.608;2023-09-18T05:08:55;0.63;;;0.40;;
4305;SDS011;2166;49.926;8.608;2023-09-18T05:11:24;1.80;;;1.70;;
4305;SDS011;2166;49.926;8.608;2023-09-18T05:13:52;0.85;;;0.85;;
4305;SDS011;2166;49.926;8.608;2023-09-18T05:16:21;0.17;;;0.17;;
4305;SDS011;2166;49.926;8.608;2023-09-18T05:18:49;0.10;;;0.10;;
4305;SDS011;2166;49.926;8.608;2023-09-18T05:21:19;6.07;;;0.57;;
4305;SDS011;2166;49.926;8.608;2023-09-18T05:23:51;2.28;;;0.95;;
4305;SDS011;2166;49.926;8.608;2023-09-18T05:26:20;0.50;;;0.50;;
4305;SDS011;2166;49.926;8.608;2023-09-18T05:28:51;0.10;;;0.10;;
4305;SDS011;2166;49.926;8.608;2023-09-18T05:31:21;1.85;;;1.10;;
4305;SDS011;2166;49.926;8.608;2023-09-18T05:33:50;0.65;;;0.65;;
4305;SDS011;2166;49.926;8.608;2023-09-18T05:36:20;1.00;;;0.47;;
4305;SDS011;2166;49.926;8.608;2023-09-18T05:38:48;0.30;;;0.30;;
4305;SDS011;2166;49.926;8.608;2023-09-18T05:41:17;0.28;;;0.28;;
4305;SDS011;2166;49.926;8.608;2023-09-18T05:43:45;0.10;;;0.10;;
4305;SDS011;2166;49.926;8.608;2023-09-18T05:46:14;0.10;;;0.10;;
4305;SDS011;2166;49.926;8.608;2023-09-18T05:48:42;0.75;;;0.63;;
4305;SDS011;2166;49.926;8.608;2023-09-18T05:51:10;0.10;;;0.10;;
4305;SDS011;2166;49.926;8.608;2023-09-18T05:53:40;2.03;;;1.65;;
4305;SDS011;2166;49.926;8.608;2023-09-18T05:56:08;0.45;;;0.45;;
4305;SDS011;2166;49.926;8.608;2023-09-18T05:58:36;0.10;;;0.10;;
4305;SDS011;2166;49.926;8.608;2023-09-18T06:01:06;3.85;;;1.35;;
4305;SDS011;2166;49.926;8.608;2023-09-18T06:03:35;0.15;;;0.15;;
4305;SDS011;2166;49.926;8.608;2023-09-18T06:06:03;0.15;;;0.15;;
4305;SDS011;2166;49.926;8.608;2023-09-18T06:08:32;1.75;;;1.10;;
4305;SDS011;2166;49.926;8.608;2023-09-18T06:11:02;1.33;;;1.05;;
4305;SDS011;2166;49.926;8.608;2023-09-18T06:13:30;1.30;;;0.88;;
4305;SDS011;2166;49.926;8.608;2023-09-18T06:16:00;0.10;;;0.10;;
4305;SDS011;2166;49.926;8.608;2023-09-18T06:18:33;0.38;;;0.38;;
4305;SDS011;2166;49.926;8.608;2023-09-18T06:21:04;0.05;;;0.05;;
4305;SDS011;2166;49.926;8.608;2023-09-18T06:23:33;0.20;;;0.20;;
4305;SDS011;2166;49.926;8.608;2023-09-18T06:26:03;2.25;;;1.23;;
4305;SDS011;2166;49.926;8.608;2023-09-18T06:28:31;0.10;;;0.10;;
4305;SDS011;2166;49.926;8.608;2023-09-18T06:30:59;0.30;;;0.30;;
4305;SDS011;2166;49.926;8.608;2023-09-18T06:33:28;0.00;;;0.00;;
4305;SDS011;2166;49.926;8.608;2023-09-18T06:35:56;0.10;;;0.10;;
4305;SDS011;2166;49.926;8.608;2023-09-18T06:38:25;0.47;;;0.47;;
4305;SDS011;2166;49.926;8.608;2023-09-18T06:40:53;0.95;;;0.95;;
4305;SDS011;2166;49.926;8.608;2023-09-18T06:43:23;0.30;;;0.30;;
4305;SDS011;2166;49.926;8.608;2023-09-18T06:45:52;0.00;;;0.00;;
4305;SDS011;2166;49.926;8.608;2023-09-18T06:48:20;0.00;;;0.00;;
4305;SDS011;2166;49.926;8.608;2023-09-18T06:50:49;0.00;;;0.00;;
4305;SDS011;2166;49.926;8.608;2023-09-18T06:53:17;1.00;;;0.70;;
4305;SDS011;2166;49.926;8.608;2023-09-18T06:55:45;0.00;;;0.00;;
4305;SDS011;2166;49.926;8.608;2023-09-18T06:58:14;0.47;;;0.47;;
4305;SDS011;2166;49.926;8.608;2023-09-18T07:00:43;1.20;;;1.10;;
4305;SDS011;2166;49.926;8.608;2023-09-18T07:03:12;0.00;;;0.00;;
4305;SDS011;2166;49.926;8.608;2023-09-18T07:05:41;0.03;;;0.03;;
4305;SDS011;2166;49.926;8.608;2023-09-18T07:08:09;0.00;;;0.00;;
4305;SDS011;2166;49.926;8.608;2023-09-18T07:10:39;1.45;;;1.25;;
4305;SDS011;2166;49.926;8.608;2023-09-18T07:13:08;0.30;;;0.30;;
4305;SDS011;2166;49.926;8.608;2023-09-18T07:15:36;0.63;;;0.45;;
4305;SDS011;2166;49.926;8.608;2023-09-18T07:18:06;0.00;;;0.00;;
4305;SDS011;2166;49.926;8.608;2023-09-18T07:20:36;0.20;;;0.20;;
4305;SDS011;2166;49.926;8.608;2023-09-18T07:23:04;0.30;;;0.30;;
4305;SDS011;2166;49.926;8.608;2023-09-18T07:25:33;2.65;;;1.48;;
4305;SDS011;2166;49.926;8.608;2023-09-18T07:28:05;0.00;;;0.00;;
4305;SDS011;2166;49.926;8.608;2023-09-18T07:30:33;2.70;;;1.20;;
4305;SDS011;2166;49.926;8.608;2023-09-18T07:33:03;0.20;;;0.20;;
4305;SDS011;2166;49.926;8.608;2023-09-18T07:35:33;0.10;;;0.10;;
4305;SDS011;2166;49.926;8.608;2023-09-18T07:38:01;0.73;;;0.73;;
4305;SDS011;2166;49.926;8.608;2023-09-18T07:40:30;0.30;;;0.30;;
4305;SDS011;2166;49.926;8.608;2023-09-18T07:42:58;3.85;;;1.30;;
4305;SDS011;2166;49.926;8.608;2023-09-18T07:45:26;1.20;;;1.10;;
4305;SDS011;2166;49.926;8.608;2023-09-18T07:47:55;0.73;;;0.65;;
4305;SDS011;2166;49.926;8.608;2023-09-18T07:50:26;0.00;;;0.00;;
4305;SDS011;2166;49.926;8.608;2023-09-18T07:52:55;0.10;;;0.10;;
4305;SDS011;2166;49.926;8.608;2023-09-18T07:55:23;4.53;;;1.40;;
4305;SDS011;2166;49.926;8.608;2023-09-18T07:57:52;1.17;;;0.95;;
4305;SDS011;2166;49.926;8.608;2023-09-18T08:00:20;13.07;;;3.38;;
4305;SDS011;2166;49.926;8.608;2023-09-18T08:02:49;12.55;;;3.03;;
4305;SDS011;2166;49.926;8.608;2023-09-18T08:05:22;15.32;;;4.47;;
4305;SDS011;2166;49.926;8.608;2023-09-18T08:07:55;12.05;;;3.50;;
4305;SDS011;2166;49.926;8.608;2023-09-18T08:10:25;8.65;;;3.00;;
4305;SDS011;2166;49.926;8.608;2023-09-18T08:12:54;10.70;;;3.95;;
4305;SDS011;2166;49.926;8.608;2023-09-18T08:15:22;8.93;;;2.78;;
4305;SDS011;2166;49.926;8.608;2023-09-18T08:17:51;7.72;;;2.65;;
4305;SDS011;2166;49.926;8.608;2023-09-18T08:20:20;9.55;;;4.03;;
4305;SDS011;2166;49.926;8.608;2023-09-18T08:22:48;9.68;;;2.80;;
4305;SDS011;2166;49.926;8.608;2023-09-18T08:25:18;9.68;;;3.03;;
4305;SDS011;2166;49.926;8.608;2023-09-18T08:27:47;8.00;;;2.83;;
4305;SDS011;2166;49.926;8.608;2023-09-18T08:30:15;7.40;;;2.80;;
4305;SDS011;2166;49.926;8.608;2023-09-18T08:32:47;15.25;;;3.00;;
4305;SDS011;2166;49.926;8.608;2023-09-18T08:35:15;9.55;;;2.72;;
4305;SDS011;2166;49.926;8.608;2023-09-18T08:37:44;12.85;;;2.88;;
4305;SDS011;2166;49.926;8.608;2023-09-18T08:40:13;6.63;;;2.47;;
4305;SDS011;2166;49.926;8.608;2023-09-18T08:42:47;7.13;;;2.30;;
4305;SDS011;2166;49.926;8.608;2023-09-18T08:45:22;6.93;;;2.42;;
4305;SDS011;2166;49.926;8.608;2023-09-18T08:47:53;11.15;;;2.20;;
4305;SDS011;2166;49.926;8.608;2023-09-18T08:50:22;13.48;;;2.58;;
4305;SDS011;2166;49.926;8.608;2023-09-18T08:52:51;5.88;;;1.75;;
4305;SDS011;2166;49.926;8.608;2023-09-18T08:55:21;12.20;;;2.13;;
4305;SDS011;2166;49.926;8.608;2023-09-18T08:57:52;4.80;;;1.63;;
4305;SDS011;2166;49.926;8.608;2023-09-18T09:00:21;6.32;;;1.67;;
4305;SDS011;2166;49.926;8.608;2023-09-18T09:02:49;7.55;;;1.95;;
4305;SDS011;2166;49.926;8.608;2023-09-18T09:05:21;10.02;;;1.55;;
4305;SDS011;2166;49.926;8.608;2023-09-18T09:07:50;7.07;;;2.00;;
4305;SDS011;2166;49.926;8.608;2023-09-18T09:10:18;3.33;;;1.45;;
4305;SDS011;2166;49.926;8.608;2023-09-18T09:12:51;7.85;;;1.55;;
4305;SDS011;2166;49.926;8.608;2023-09-18T09:15:21;5.82;;;1.95;;
4305;SDS011;2166;49.926;8.608;2023-09-18T09:17:51;8.68;;;1.65;;
4305;SDS011;2166;49.926;8.608;2023-09-18T09:20:20;10.10;;;1.98;;
4305;SDS011;2166;49.926;8.608;2023-09-18T09:22:48;4.97;;;1.83;;
4305;SDS011;2166;49.926;8.608;2023-09-18T09:25:24;7.60;;;1.40;;
4305;SDS011;2166;49.926;8.608;2023-09-18T09:27:55;6.40;;;1.52;;
4305;SDS011;2166;49.926;8.608;2023-09-18T09:30:24;5.22;;;1.30;;
4305;SDS011;2166;49.926;8.608;2023-09-18T09:32:55;8.68;;;1.63;;
4305;SDS011;2166;49.926;8.608;2023-09-18T09:35:24;6.13;;;0.98;;
4305;SDS011;2166;49.926;8.608;2023-09-18T09:37:56;6.38;;;1.40;;
4305;SDS011;2166;49.926;8.608;2023-09-18T09:40:28;4.28;;;1.63;;
4305;SDS011;2166;49.926;8.608;2023-09-18T09:42:59;6.90;;;1.45;;
4305;SDS011;2166;49.926;8.608;2023-09-18T09:45:31;6.60;;;1.73;;
4305;SDS011;2166;49.926;8.608;2023-09-18T09:48:02;3.60;;;1.92;;
4305;SDS011;2166;49.926;8.608;2023-09-18T09:50:34;5.10;;;1.77;;
4305;SDS011;2166;49.926;8.608;2023-09-18T09:53:12;5.93;;;1.48;;
4305;SDS011;2166;49.926;8.608;2023-09-18T09:55:41;9.95;;;1.60;;
4305;SDS011;2166;49.926;8.608;2023-09-18T09:58:11;8.00;;;1.60;;
4305;SDS011;2166;49.926;8.608;2023-09-18T10:00:41;8.68;;;2.85;;
4305;SDS011;2166;49.926;8.608;2023-09-18T10:03:12;12.27;;;1.92;;
4305;SDS011;2166;49.926;8.608;2023-09-18T10:05:44;7.30;;;1.50;;
4305;SDS011;2166;49.926;8.608;2023-09-18T10:08:14;5.85;;;1.55;;
4305;SDS011;2166;49.926;8.608;2023-09-18T10:10:46;3.28;;;1.23;;
4305;SDS011;2166;49.926;8.608;2023-09-18T10:13:17;6.63;;;1.05;;
4305;SDS011;2166;49.926;8.608;2023-09-18T10:15:48;5.95;;;1.10;;
4305;SDS011;2166;49.926;8.608;2023-09-18T10:18:22;5.60;;;1.50;;
4305;SDS011;2166;49.926;8.608;2023-09-18T10:20:56;5.53;;;1.60;;
4305;SDS011;2166;49.926;8.608;2023-09-18T10:23:34;9.48;;;2.10;;
4305;SDS011;2166;49.926;8.608;2023-09-18T10:26:13;8.10;;;1.30;;
4305;SDS011;2166;49.926;8.608;2023-09-18T10:28:53;5.60;;;1.25;;
4305;SDS011;2166;49.926;8.608;2023-09-18T10:31:26;4.32;;;1.10;;
4305;SDS011;2166;49.926;8.608;2023-09-18T10:33:55;6.95;;;1.58;;
4305;SDS011;2166;49.926;8.608;2023-09-18T10:36:25;10.25;;;1.77;;
4305;SDS011;2166;49.926;8.608;2023-09-18T10:38:54;3.72;;;1.20;;
4305;SDS011;2166;49.926;8.608;2023-09-18T10:41:25;3.83;;;1.25;;
4305;SDS011;2166;49.926;8.608;2023-09-18T10:43:56;4.25;;;1.20;;
4305;SDS011;2166;49.926;8.608;2023-09-18T10:46:25;3.28;;;1.30;;
4305;SDS011;2166;49.926;8.608;2023-09-18T10:48:55;5.68;;;1.10;;
4305;SDS011;2166;49.926;8.608;2023-09-18T10:51:25;5.25;;;1.30;;
4305;SDS011;2166;49.926;8.608;2023-09-18T10:53:56;3.53;;;1.42;;
4305;SDS011;2166;49.926;8.608;2023-09-18T10:56:25;3.97;;;1.38;;
4305;SDS011;2166;49.926;8.608;2023-09-18T10:58:59;6.03;;;1.40;;
4305;SDS011;2166;49.926;8.608;2023-09-18T11:01:29;5.13;;;1.92;;
4305;SDS011;2166;49.926;8.608;2023-09-18T11:03:58;4.93;;;1.27;;
4305;SDS011;2166;49.926;8.608;2023-09-18T11:06:28;3.40;;;1.10;;
4305;SDS011;2166;49.926;8.608;2023-09-18T11:09:00;5.18;;;1.27;;
4305;SDS011;2166;49.926;8.608;2023-09-18T11:11:31;3.07;;;1.13;;
4305;SDS011;2166;49.926;8.608;2023-09-18T11:14:03;6.93;;;1.00;;
4305;SDS011;2166;49.926;8.608;2023-09-18T11:16:38;4.95;;;1.30;;
4305;SDS011;2166;49.926;8.608;2023-09-18T11:19:09;3.80;;;1.13;;
4305;SDS011;2166;49.926;8.608;2023-09-18T11:21:44;6.22;;;1.15;;
4305;SDS011;2166;49.926;8.608;2023-09-18T11:24:16;3.83;;;1.25;;
4305;SDS011;2166;49.926;8.608;2023-09-18T11:26:48;2.78;;;1.10;;
4305;SDS011;2166;49.926;8.608;2023-09-18T11:29:22;7.22;;;1.65;;
4305;SDS011;2166;49.926;8.608;2023-09-18T11:31:54;6.90;;;1.00;;
4305;SDS011;2166;49.926;8.608;2023-09-18T11:34:32;3.85;;;1.05;;
4305;SDS011;2166;49.926;8.608;2023-09-18T11:37:01;5.75;;;1.15;;
4305;SDS011;2166;49.926;8.608;2023-09-18T11:39:46;7.28;;;1.20;;
4305;SDS011;2166;49.926;8.608;2023-09-18T11:42:17;7.25;;;1.65;;
4305;SDS011;2166;49.926;8.608;2023-09-18T11:44:50;6.40;;;1.02;;
4305;SDS011;2166;49.926;8.608;2023-09-18T11:47:19;7.10;;;1.67;;
4305;SDS011;2166;49.926;8.608;2023-09-18T11:49:51;7.00;;;1.42;;
4305;SDS011;2166;49.926;8.608;2023-09-18T11:52:25;6.93;;;1.60;;
4305;SDS011;2166;49.926;8.608;2023-09-18T11:54:55;4.05;;;1.60;;
4305;SDS011;2166;49.926;8.608;2023-09-18T11:57:24;7.85;;;1.90;;
4305;SDS011;2166;49.926;8.608;2023-09-18T11:59:57;5.25;;;1.10;;
4305;SDS011;2166;49.926;8.608;2023-09-18T12:02:38;9.80;;;1.67;;
4305;SDS011;2166;49.926;8.608;2023-09-18T12:05:09;5.85;;;1.42;;
4305;SDS011;2166;49.926;8.608;2023-09-18T12:07:39;3.28;;;0.80;;
4305;SDS011;2166;49.926;8.608;2023-09-18T12:10:12;3.88;;;1.10;;
4305;SDS011;2166;49.926;8.608;2023-09-18T12:12:44;4.57;;;0.90;;
4305;SDS011;2166;49.926;8.608;2023-09-18T12:15:18;6.82;;;1.40;;
4305;SDS011;2166;49.926;8.608;2023-09-18T12:17:47;8.85;;;0.98;;
4305;SDS011;2166;49.926;8.608;2023-09-18T12:20:16;4.25;;;1.40;;
4305;SDS011;2166;49.926;8.608;2023-09-18T12:22:47;3.63;;;1.17;;
4305;SDS011;2166;49.926;8.608;2023-09-18T12:25:16;5.38;;;1.25;;
4305;SDS011;2166;49.926;8.608;2023-09-18T12:27:45;4.72;;;2.15;;
4305;SDS011;2166;49.926;8.608;2023-09-18T12:30:20;4.63;;;1.40;;
4305;SDS011;2166;49.926;8.608;2023-09-18T12:32:50;4.10;;;1.20;;
4305;SDS011;2166;49.926;8.608;2023-09-18T12:35:20;4.10;;;1.15;;
4305;SDS011;2166;49.926;8.608;2023-09-18T12:37:50;4.13;;;1.88;;
4305;SDS011;2166;49.926;8.608;2023-09-18T12:40:22;5.80;;;1.05;;
4305;SDS011;2166;49.926;8.608;2023-09-18T12:42:51;3.35;;;1.08;;
4305;SDS011;2166;49.926;8.608;2023-09-18T12:45:22;6.20;;;0.88;;
4305;SDS011;2166;49.926;8.608;2023-09-18T12:47:53;3.33;;;1.05;;
4305;SDS011;2166;49.926;8.608;2023-09-18T12:50:24;3.83;;;1.00;;
4305;SDS011;2166;49.926;8.608;2023-09-18T12:52:52;6.25;;;1.35;;
4305;SDS011;2166;49.926;8.608;2023-09-18T12:55:21;4.75;;;1.25;;
4305;SDS011;2166;49.926;8.608;2023-09-18T12:57:51;3.45;;;0.98;;
4305;SDS011;2166;49.926;8.608;2023-09-18T13:00:20;2.05;;;0.95;;
4305;SDS011;2166;49.926;8.608;2023-09-18T13:02:53;1.97;;;1.10;;
4305;SDS011;2166;49.926;8.608;2023-09-18T13:05:23;4.00;;;1.33;;
4305;SDS011;2166;49.926;8.608;2023-09-18T13:07:53;4.60;;;1.23;;
4305;SDS011;2166;49.926;8.608;2023-09-18T13:10:23;4.93;;;1.02;;
4305;SDS011;2166;49.926;8.608;2023-09-18T13:12:54;3.22;;;1.02;;
4305;SDS011;2166;49.926;8.608;2023-09-18T13:15:26;4.13;;;0.75;;
4305;SDS011;2166;49.926;8.608;2023-09-18T13:17:56;2.13;;;1.10;;
4305;SDS011;2166;49.926;8.608;2023-09-18T13:20:27;5.57;;;1.42;;
4305;SDS011;2166;49.926;8.608;2023-09-18T13:22:58;9.75;;;0.93;;
4305;SDS011;2166;49.926;8.608;2023-09-18T13:25:31;4.07;;;1.35;;
4305;SDS011;2166;49.926;8.608;2023-09-18T13:28:02;3.22;;;0.82;;
4305;SDS011;2166;49.926;8.608;2023-09-18T13:30:33;3.05;;;1.00;;
4305;SDS011;2166;49.926;8.608;2023-09-18T13:33:06;8.48;;;1.15;;
4305;SDS011;2166;49.926;8.608;2023-09-18T13:35:37;4.85;;;1.50;;
4305;SDS011;2166;49.926;8.608;2023-09-18T13:38:07;3.95;;;0.98;;
4305;SDS011;2166;49.926;8.608;2023-09-18T13:40:38;3.55;;;1.02;;
4305;SDS011;2166;49.926;8.608;2023-09-18T13:43:07;4.68;;;1.20;;
4305;SDS011;2166;49.926;8.608;2023-09-18T13:45:38;4.05;;;1.45;;
4305;SDS011;2166;49.926;8.608;2023-09-18T13:48:06;6.63;;;1.83;;
4305;SDS011;2166;49.926;8.608;2023-09-18T13:50:36;6.88;;;1.50;;
4305;SDS011;2166;49.926;8.608;2023-09-18T13:53:04;4.53;;;1.30;;
4305;SDS011;2166;49.926;8.608;2023-09-18T13:55:33;5.88;;;1.50;;
4305;SDS011;2166;49.926;8.608;2023-09-18T13:58:02;3.55;;;1.42;;
4305;SDS011;2166;49.926;8.608;2023-09-18T14:00:30;6.28;;;1.52;;
4305;SDS011;2166;49.926;8.608;2023-09-18T14:03:00;7.47;;;1.75;;
4305;SDS011;2166;49.926;8.608;2023-09-18T14:05:30;6.93;;;1.55;;
4305;SDS011;2166;49.926;8.608;2023-09-18T14:08:01;4.80;;;1.23;;
4305;SDS011;2166;49.926;8.608;2023-09-18T14:10:31;5.65;;;1.63;;
4305;SDS011;2166;49.926;8.608;2023-09-18T14:12:59;4.07;;;1.30;;
4305;SDS011;2166;49.926;8.608;2023-09-18T14:15:28;2.28;;;1.10;;
4305;SDS011;2166;49.926;8.608;2023-09-18T14:17:56;3.67;;;1.10;;
4305;SDS011;2166;49.926;8.608;2023-09-18T14:20:26;8.15;;;1.20;;
4305;SDS011;2166;49.926;8.608;2023-09-18T14:22:55;4.30;;;1.52;;
4305;SDS011;2166;49.926;8.608;2023-09-18T14:25:23;5.45;;;1.33;;
4305;SDS011;2166;49.926;8.608;2023-09-18T14:27:53;5.45;;;1.10;;
4305;SDS011;2166;49.926;8.608;2023-09-18T14:30:21;6.75;;;1.30;;
4305;SDS011;2166;49.926;8.608;2023-09-18T14:35:26;7.32;;;2.00;;
4305;SDS011;2166;49.926;8.608;2023-09-18T14:37:55;32.92;;;5.40;;
4305;SDS011;2166;49.926;8.608;2023-09-18T14:40:23;7.72;;;1.52;;
4305;SDS011;2166;49.926;8.608;2023-09-18T14:42:52;41.50;;;7.68;;
4305;SDS011;2166;49.926;8.608;2023-09-18T14:45:21;3.28;;;1.40;;
4305;SDS011;2166;49.926;8.608;2023-09-18T14:47:50;3.00;;;0.85;;
4305;SDS011;2166;49.926;8.608;2023-09-18T14:50:18;5.03;;;1.27;;
4305;SDS011;2166;49.926;8.608;2023-09-18T14:52:49;3.55;;;1.05;;
4305;SDS011;2166;49.926;8.608;2023-09-18T14:55:17;5.03;;;1.38;;
4305;SDS011;2166;49.926;8.608;2023-09-18T14:57:46;3.50;;;1.73;;
4305;SDS011;2166;49.926;8.608;2023-09-18T15:02:48;6.53;;;1.58;;
4305;SDS011;2166;49.926;8.608;2023-09-18T15:05:17;19.52;;;2.13;;
4305;SDS011;2166;49.926;8.608;2023-09-18T15:07:45;12.68;;;1.95;;
4305;SDS011;2166;49.926;8.608;2023-09-18T15:10:14;3.33;;;1.55;;
4305;SDS011;2166;49.926;8.608;2023-09-18T15:12:43;4.22;;;1.20;;
4305;SDS011;2166;49.926;8.608;2023-09-18T15:15:11;47.88;;;3.60;;
4305;SDS011;2166;49.926;8.608;2023-09-18T15:17:40;8.13;;;1.20;;
4305;SDS011;2166;49.926;8.608;2023-09-18T15:20:08;3.47;;;0.90;;
4305;SDS011;2166;49.926;8.608;2023-09-18T15:22:39;4.68;;;1.10;;
4305;SDS011;2166;49.926;8.608;2023-09-18T15:25:07;4.88;;;1.10;;
4305;SDS011;2166;49.926;8.608;2023-09-18T15:27:38;4.28;;;1.50;;
4305;SDS011;2166;49.926;8.608;2023-09-18T15:30:07;4.97;;;1.50;;
4305;SDS011;2166;49.926;8.608;2023-09-18T15:32:45;3.20;;;1.30;;
4305;SDS011;2166;49.926;8.608;2023-09-18T15:35:16;4.15;;;0.95;;
4305;SDS011;2166;49.926;8.608;2023-09-18T15:37:45;3.72;;;1.05;;
4305;SDS011;2166;49.926;8.608;2023-09-18T15:40:13;8.18;;;1.42;;